Terminal Aerodrome Forecast
Issued by NWS

Home | Current Version | Previous Version | Text Only | Print | Product List | Glossary On
Versions: 1 2 3 4 5 6 7 8 9 10 11 12 13 14 15 16 17 18 19 20 21
000
FTUS43 KDVN 282200 AAB
TAFCID
TAF AMD
KCID 282209Z 2822/2918 11006KT P6SM BKN007 OVC080
      TEMPO 2822/2823 SCT007
     FM282330 14005KT P6SM VCSH OVC035
     FM290400 16006KT 5SM BR VCSH BKN050
     FM291500 16007KT 6SM BR VCSH OVC100=

USA.gov is the U.S. government's official web portal to all federal, state and local government web resources and services.